Time;durP1;ratioP1;P1;durP2;ratioP2;P2;SDS_P1;SDS_P2;PMS_P1;PMS_P2;Temp;Humidity;BMP_temperature;BMP_pressure;BME280_temperature;BME280_humidity;BME280_pressure;Samples;Min_cycle;Max_cycle;Signal;HPM_P1;HPM_P2
2023/09/04 00:01:18;;;;;;;0.13;0.13;;;;;;;13.98;80.56;98726.22;5069493;28;20047;-68
2023/09/04 00:03:46;;;;;;;0.22;0.22;;;;;;;13.87;80.88;98724.84;5065615;28;20072;-67
2023/09/04 00:06:14;;;;;;;0.20;0.20;;;;;;;13.70;81.29;98723.38;5057873;28;20099;-68
2023/09/04 00:08:43;;;;;;;0.15;0.15;;;;;;;13.85;80.67;98734.09;5063287;28;20117;-68
2023/09/04 00:11:11;;;;;;;0.22;0.22;;;;;;;13.80;80.44;98733.84;5076494;28;20083;-68
2023/09/04 00:13:38;;;;;;;0.03;0.03;;;;;;;13.95;79.41;98737.31;5063254;28;20405;-67
2023/09/04 00:16:06;;;;;;;0.17;0.17;;;;;;;14.01;79.06;98735.75;5061704;28;20047;-68
2023/09/04 00:18:35;;;;;;;0.17;0.17;;;;;;;13.96;78.26;98738.97;5064158;28;20169;-69
2023/09/04 00:21:03;;;;;;;0.13;0.13;;;;;;;14.05;77.79;98745.91;5064064;28;20670;-68
2023/09/04 00:23:31;;;;;;;0.20;0.20;;;;;;;13.88;77.85;98749.81;5070677;28;20481;-68
2023/09/04 00:25:59;;;;;;;0.17;0.17;;;;;;;13.98;78.00;98750.38;5064118;28;20128;-68
2023/09/04 00:28:26;;;;;;;0.13;0.13;;;;;;;13.91;77.78;98750.25;5057940;28;20044;-68
2023/09/04 00:30:56;;;;;;;0.20;0.20;;;;;;;13.75;78.43;98747.78;5071009;28;20053;-68
2023/09/04 00:33:24;;;;;;;0.22;0.22;;;;;;;13.66;78.97;98740.03;5061979;28;20119;-68
2023/09/04 00:35:53;;;;;;;0.22;0.22;;;;;;;13.60;79.14;98746.97;5062336;28;20053;-68
2023/09/04 00:38:21;;;;;;;0.13;0.13;;;;;;;13.54;79.27;98745.03;5055659;28;20045;-68
2023/09/04 00:40:49;;;;;;;0.32;0.32;;;;;;;13.67;78.53;98745.22;5059460;28;20037;-68
2023/09/04 00:43:17;;;;;;;0.13;0.13;;;;;;;13.60;78.30;98742.44;5071447;28;20115;-68
2023/09/04 00:45:45;;;;;;;0.05;0.05;;;;;;;13.53;78.89;98735.31;5069249;28;20079;-68
2023/09/04 00:48:13;;;;;;;0.20;0.20;;;;;;;13.53;78.89;98736.16;5057916;28;20040;-67
2023/09/04 00:50:42;;;;;;;0.20;0.20;;;;;;;13.53;79.17;98748.72;5068287;28;20032;-67
2023/09/04 00:53:11;;;;;;;0.20;0.20;;;;;;;13.49;79.24;98744.75;5066745;28;20036;-67
2023/09/04 00:55:40;;;;;;;0.40;0.40;;;;;;;13.46;79.82;98748.63;5066327;28;20135;-67
2023/09/04 00:58:07;;;;;;;0.30;0.30;;;;;;;13.45;79.92;98748.81;5071674;28;20041;-67
2023/09/04 01:00:35;;;;;;;0.20;0.20;;;;;;;13.51;78.84;98758.81;5063794;28;20044;-67
2023/09/04 01:03:04;;;;;;;0.20;0.20;;;;;;;13.48;78.58;98741.25;5067253;28;20075;-68
2023/09/04 01:05:33;;;;;;;0.20;0.20;;;;;;;13.39;78.46;98747.69;5064337;28;20040;-68
2023/09/04 01:08:01;;;;;;;0.20;0.20;;;;;;;13.17;79.54;98752.13;5062467;28;20045;-67
2023/09/04 01:10:35;;;;;;;0.30;0.30;;;;;;;13.18;79.59;98750.28;5062765;28;20054;-66
2023/09/04 01:13:08;;;;;;;0.30;0.30;;;;;;;12.78;81.78;98746.91;5065132;28;20032;-67
2023/09/04 01:15:36;;;;;;;0.20;0.20;;;;;;;12.79;81.71;98755.78;5068888;28;20101;-68
2023/09/04 01:18:05;;;;;;;0.13;0.13;;;;;;;12.87;81.46;98759.22;5068359;28;20529;-67
2023/09/04 01:20:34;;;;;;;0.15;0.15;;;;;;;12.85;80.99;98755.06;5068655;28;20072;-66
2023/09/04 01:23:02;;;;;;;0.08;0.08;;;;;;;12.97;80.75;98756.31;5062071;28;20052;-68
2023/09/04 01:25:39;;;;;;;0.13;0.13;;;;;;;13.02;80.21;98747.72;5066465;28;20044;-67
2023/09/04 01:28:11;;;;;;;0.20;0.20;;;;;;;12.92;80.89;98763.22;5067957;28;20075;-68
2023/09/04 01:30:47;;;;;;;0.10;0.10;;;;;;;12.76;81.92;98759.66;5061137;28;20115;-68
2023/09/04 01:33:19;;;;;;;0.20;0.20;;;;;;;12.76;82.37;98774.91;5060053;28;20032;-68
2023/09/04 01:35:50;;;;;;;0.13;0.13;;;;;;;12.75;82.20;98766.03;5060779;28;20440;-68
2023/09/04 01:38:19;;;;;;;0.20;0.20;;;;;;;12.95;81.32;98778.94;5059639;28;20708;-67
2023/09/04 01:40:51;;;;;;;0.20;0.20;;;;;;;13.02;81.10;98786.06;5055603;28;20504;-67
2023/09/04 01:43:19;;;;;;;0.15;0.15;;;;;;;12.99;81.06;98782.91;5058583;28;20044;-67
2023/09/04 01:45:47;;;;;;;0.20;0.20;;;;;;;13.05;80.85;98780.34;5061930;28;20060;-67
2023/09/04 01:48:15;;;;;;;0.20;0.20;;;;;;;12.99;81.18;98786.41;5056910;28;20053;-67
2023/09/04 01:50:42;;;;;;;0.10;0.10;;;;;;;13.13;80.66;98784.81;5060932;28;20041;-67
2023/09/04 01:53:11;;;;;;;0.10;0.10;;;;;;;13.03;80.78;98774.34;5060742;28;20413;-67
2023/09/04 01:55:39;;;;;;;0.20;0.20;;;;;;;13.01;80.54;98771.00;5058842;28;20048;-67
2023/09/04 01:58:06;;;;;;;0.30;0.30;;;;;;;12.97;80.62;98780.44;5058247;28;20080;-68
2023/09/04 02:00:34;;;;;;;0.20;0.20;;;;;;;12.80;80.99;98779.72;5060187;28;20059;-67
2023/09/04 02:03:02;;;;;;;0.10;0.10;;;;;;;12.86;80.56;98778.19;5055391;28;20076;-67
2023/09/04 02:05:30;;;;;;;0.20;0.20;;;;;;;12.87;80.19;98775.28;5069213;28;20055;-68
2023/09/04 02:07:57;;;;;;;0.22;0.22;;;;;;;12.74;80.70;98769.72;5058552;28;20044;-68
2023/09/04 02:10:27;;;;;;;0.10;0.10;;;;;;;12.63;80.99;98780.84;5069698;28;20403;-68
2023/09/04 02:12:56;;;;;;;0.20;0.20;;;;;;;12.55;81.21;98770.19;5067253;28;20115;-67
2023/09/04 02:15:23;;;;;;;0.10;0.10;;;;;;;12.47;81.46;98776.44;5069321;28;20048;-67
2023/09/04 02:17:52;;;;;;;0.13;0.13;;;;;;;12.52;81.43;98775.06;5060458;28;20419;-67
2023/09/04 02:20:21;;;;;;;0.20;0.20;;;;;;;12.53;81.69;98777.56;5062146;28;21300;-67
2023/09/04 02:22:48;;;;;;;0.10;0.10;;;;;;;12.59;81.24;98770.66;5067729;28;20429;-67
2023/09/04 02:25:16;;;;;;;0.08;0.08;;;;;;;12.59;81.31;98771.50;5058784;28;20083;-67
2023/09/04 02:27:45;;;;;;;0.13;0.13;;;;;;;12.52;81.73;98764.34;5066431;28;20035;-67
2023/09/04 02:30:13;;;;;;;0.13;0.13;;;;;;;12.50;81.71;98756.50;5059169;28;20499;-67
2023/09/04 02:32:42;;;;;;;0.30;0.30;;;;;;;12.47;82.13;98759.53;5061169;28;20076;-67
2023/09/04 02:35:10;;;;;;;0.22;0.22;;;;;;;12.42;82.47;98759.25;5071300;28;20049;-68
2023/09/04 02:37:38;;;;;;;0.20;0.20;;;;;;;12.45;81.75;98751.69;5064090;28;20046;-68
2023/09/04 02:40:07;;;;;;;0.20;0.20;;;;;;;12.35;82.36;98745.75;5071336;28;20044;-68
2023/09/04 02:42:35;;;;;;;0.13;0.13;;;;;;;12.27;82.91;98750.28;5069799;28;20093;-68
2023/09/04 02:45:05;;;;;;;0.22;0.22;;;;;;;12.33;82.78;98741.56;5065594;28;20048;-68
2023/09/04 02:47:32;;;;;;;0.17;0.17;;;;;;;12.30;82.97;98750.78;5071109;28;20045;-68
2023/09/04 02:50:00;;;;;;;0.17;0.17;;;;;;;12.36;82.52;98750.06;5062599;28;20044;-68
2023/09/04 02:52:29;;;;;;;0.20;0.20;;;;;;;12.37;82.37;98746.38;5061725;28;20056;-67
2023/09/04 02:54:57;;;;;;;0.30;0.30;;;;;;;12.50;81.58;98751.97;5064455;28;20047;-67
2023/09/04 02:57:25;;;;;;;0.30;0.30;;;;;;;12.46;81.57;98739.94;5064530;28;20044;-67
2023/09/04 02:59:53;;;;;;;0.17;0.17;;;;;;;12.39;81.68;98749.72;5067160;28;20049;-67
2023/09/04 03:02:22;;;;;;;0.28;0.28;;;;;;;12.32;81.59;98742.56;5058988;28;20053;-67
2023/09/04 03:04:53;;;;;;;0.22;0.22;;;;;;;12.28;81.48;98754.63;5060369;28;20049;-67
2023/09/04 03:07:22;;;;;;;0.10;0.10;;;;;;;12.24;81.54;98750.66;5072182;28;20143;-67
2023/09/04 03:09:55;;;;;;;0.13;0.13;;;;;;;12.19;82.05;98753.84;5066368;28;20124;-67
2023/09/04 03:12:24;;;;;;;0.15;0.15;;;;;;;12.23;81.87;98744.47;5061503;28;20451;-67
2023/09/04 03:14:55;;;;;;;0.20;0.20;;;;;;;12.17;81.61;98749.69;5062965;28;20041;-67
2023/09/04 03:17:27;;;;;;;0.13;0.13;;;;;;;12.09;81.85;98743.38;5061997;28;20045;-67
2023/09/04 03:19:57;;;;;;;0.20;0.20;;;;;;;12.03;82.16;98738.72;5062696;28;20698;-67
2023/09/04 03:22:26;;;;;;;0.22;0.22;;;;;;;11.95;82.18;98746.78;5063091;28;20047;-67
2023/09/04 03:24:55;;;;;;;0.10;0.10;;;;;;;11.90;82.00;98743.81;5062735;28;20471;-67
2023/09/04 03:27:27;;;;;;;0.13;0.13;;;;;;;11.80;82.12;98731.66;5058705;28;20040;-68
2023/09/04 03:29:56;;;;;;;0.22;0.22;;;;;;;11.80;82.05;98745.88;5058751;28;20036;-68
2023/09/04 03:32:25;;;;;;;0.13;0.13;;;;;;;11.79;82.14;98743.34;5058268;28;20036;-68
2023/09/04 03:34:52;;;;;;;0.20;0.20;;;;;;;11.70;82.51;98731.84;5060493;28;20400;-67
2023/09/04 03:37:20;;;;;;;0.13;0.13;;;;;;;11.65;82.70;98735.00;5065755;28;20079;-67
2023/09/04 03:39:48;;;;;;;0.10;0.10;;;;;;;11.69;82.34;98736.34;5067329;28;20062;-67
2023/09/04 03:42:17;;;;;;;0.15;0.15;;;;;;;11.64;82.62;98732.50;5061913;28;20148;-67
2023/09/04 03:44:44;;;;;;;0.10;0.10;;;;;;;11.65;82.66;98729.66;5068279;28;20454;-67
2023/09/04 03:47:12;;;;;;;0.22;0.22;;;;;;;11.64;82.79;98743.19;5054362;28;20127;-67
2023/09/04 03:49:41;;;;;;;0.13;0.13;;;;;;;11.65;82.52;98739.53;5064498;28;20223;-67
2023/09/04 03:52:09;;;;;;;0.20;0.20;;;;;;;11.62;82.69;98750.59;5057811;28;20466;-67
2023/09/04 03:54:36;;;;;;;0.20;0.20;;;;;;;11.56;82.66;98741.41;5065719;28;20036;-67
2023/09/04 03:57:04;;;;;;;0.22;0.22;;;;;;;11.57;82.40;98745.75;5059568;28;20106;-67
2023/09/04 03:59:32;;;;;;;0.13;0.13;;;;;;;11.65;82.21;98740.34;5060903;28;20069;-67
2023/09/04 04:02:00;;;;;;;0.13;0.13;;;;;;;11.40;83.23;98742.31;5066901;28;20129;-67
2023/09/04 04:04:27;;;;;;;0.20;0.20;;;;;;;11.31;83.76;98735.31;5064860;28;20309;-67
2023/09/04 04:06:56;;;;;;;0.22;0.22;;;;;;;11.26;83.75;98734.97;5070778;28;20054;-67
2023/09/04 04:09:24;;;;;;;0.22;0.22;;;;;;;11.27;83.93;98741.16;5068059;28;20347;-69
2023/09/04 04:11:54;;;;;;;0.32;0.32;;;;;;;11.22;84.25;98740.81;5060000;28;20052;-67
2023/09/04 04:14:22;;;;;;;0.10;0.10;;;;;;;11.26;84.19;98742.16;5058095;28;20041;-67
2023/09/04 04:16:50;;;;;;;0.13;0.13;;;;;;;11.24;84.16;98736.97;5060467;28;20552;-67
2023/09/04 04:19:19;;;;;;;0.20;0.20;;;;;;;11.23;84.25;98742.50;5061876;28;20056;-67
2023/09/04 04:21:46;;;;;;;0.22;0.22;;;;;;;11.26;83.94;98726.13;5056102;28;20083;-67
2023/09/04 04:24:16;;;;;;;0.28;0.28;;;;;;;11.26;84.00;98720.78;5065941;28;20071;-67
2023/09/04 04:26:44;;;;;;;0.13;0.13;;;;;;;11.29;84.07;98728.47;5065369;28;20047;-67
2023/09/04 04:29:12;;;;;;;0.13;0.13;;;;;;;11.29;83.85;98723.94;5066413;28;20041;-67
2023/09/04 04:31:40;;;;;;;0.20;0.20;;;;;;;11.31;83.83;98729.13;5066626;28;20093;-67
2023/09/04 04:34:07;;;;;;;0.15;0.15;;;;;;;11.28;83.54;98732.13;5057534;28;20045;-67
2023/09/04 04:36:35;;;;;;;0.10;0.10;;;;;;;11.24;83.60;98736.13;5072073;28;20415;-68
2023/09/04 04:39:03;;;;;;;0.30;0.30;;;;;;;11.26;83.68;98726.97;5069991;28;20048;-68
2023/09/04 04:41:33;;;;;;;0.13;0.13;;;;;;;11.23;83.58;98740.66;5071629;28;20041;-68
2023/09/04 04:44:03;;;;;;;0.13;0.13;;;;;;;11.25;83.30;98730.63;5068465;28;20557;-68
2023/09/04 04:46:32;;;;;;;0.22;0.22;;;;;;;11.28;83.11;98727.63;5068976;28;20048;-68
2023/09/04 04:48:59;;;;;;;0.22;0.22;;;;;;;11.32;83.13;98731.59;5069354;28;20067;-68
2023/09/04 04:51:27;;;;;;;0.10;0.10;;;;;;;11.36;82.87;98737.44;5057928;28;20144;-68
2023/09/04 04:53:55;;;;;;;0.32;0.32;;;;;;;11.37;82.82;98731.09;5059467;28;20110;-68
2023/09/04 04:56:23;;;;;;;0.10;0.10;;;;;;;11.38;82.73;98735.44;5067273;28;20102;-68
2023/09/04 04:58:52;;;;;;;0.13;0.13;;;;;;;11.34;82.92;98736.78;5069844;28;20040;-67
2023/09/04 05:01:20;;;;;;;0.20;0.20;;;;;;;11.32;82.93;98739.63;5068722;28;20048;-67
2023/09/04 05:03:48;;;;;;;0.22;0.22;;;;;;;11.34;83.06;98750.16;5061803;28;20037;-67
2023/09/04 05:06:16;;;;;;;0.22;0.22;;;;;;;11.31;82.78;98748.69;5087513;28;20055;-68
2023/09/04 05:08:43;;;;;;;0.15;0.15;;;;;;;11.33;82.42;98757.34;5070883;28;20105;-68
2023/09/04 05:11:13;;;;;;;0.22;0.22;;;;;;;11.32;82.51;98760.16;5070664;28;20810;-67
2023/09/04 05:13:41;;;;;;;0.32;0.32;;;;;;;11.30;82.61;98757.69;5070210;28;20072;-67
2023/09/04 05:16:11;;;;;;;0.20;0.20;;;;;;;11.29;82.70;98766.72;5069990;28;20041;-67
2023/09/04 05:18:39;;;;;;;0.10;0.10;;;;;;;11.31;82.55;98764.72;5067289;28;20106;-67
2023/09/04 05:21:07;;;;;;;0.30;0.30;;;;;;;11.46;82.31;98761.31;5065478;28;20537;-68
2023/09/04 05:23:36;;;;;;;0.13;0.13;;;;;;;11.45;81.95;98757.81;5055396;28;20047;-68
2023/09/04 05:26:04;;;;;;;0.13;0.13;;;;;;;11.50;82.10;98762.66;5062498;28;20036;-68
2023/09/04 05:28:33;;;;;;;0.20;0.20;;;;;;;11.52;81.60;98763.31;5066657;28;20090;-69
2023/09/04 05:31:03;;;;;;;0.22;0.22;;;;;;;11.45;82.54;98759.66;5068900;28;20052;-69
2023/09/04 05:33:32;;;;;;;0.13;0.13;;;;;;;11.55;82.27;98754.94;5068224;28;20522;-68
2023/09/04 05:36:00;;;;;;;0.10;0.10;;;;;;;11.53;82.32;98765.78;5070216;28;20127;-69
2023/09/04 05:38:28;;;;;;;0.10;0.10;;;;;;;11.63;81.90;98765.59;5063072;28;20115;-69
2023/09/04 05:40:57;;;;;;;0.22;0.22;;;;;;;11.63;81.82;98770.94;5062616;28;20045;-69
2023/09/04 05:43:25;;;;;;;0.15;0.15;;;;;;;11.62;81.95;98771.97;5067267;28;20511;-69
2023/09/04 05:45:53;;;;;;;0.15;0.15;;;;;;;11.75;81.79;98770.44;5069263;28;20132;-69
2023/09/04 05:48:21;;;;;;;0.22;0.22;;;;;;;11.80;81.62;98766.44;5065377;28;20041;-69
2023/09/04 05:50:50;;;;;;;0.28;0.28;;;;;;;11.76;81.74;98768.59;5069835;28;20075;-69
2023/09/04 05:53:19;;;;;;;0.17;0.17;;;;;;;11.77;81.79;98759.56;5072031;28;20048;-69
2023/09/04 05:56:05;;;;;;;0.32;0.32;;;;;;;11.84;81.43;98765.06;5067446;28;20041;-69
2023/09/04 05:58:33;;;;;;;0.13;0.13;;;;;;;11.82;81.29;98769.78;5071238;28;20123;-69
2023/09/04 06:01:00;;;;;;;0.25;0.25;;;;;;;11.89;80.94;98760.88;5067421;28;20506;-69
2023/09/04 06:03:28;;;;;;;0.22;0.22;;;;;;;11.95;81.12;98765.50;5070603;28;20036;-69
2023/09/04 06:05:57;;;;;;;0.22;0.22;;;;;;;11.96;80.80;98769.84;5067226;28;20500;-69
2023/09/04 06:08:25;;;;;;;0.20;0.20;;;;;;;11.86;81.26;98768.41;5078194;28;20116;-69
2023/09/04 06:10:53;;;;;;;0.13;0.13;;;;;;;12.00;80.92;98762.31;5074448;28;20048;-69
2023/09/04 06:13:20;;;;;;;0.22;0.22;;;;;;;12.11;80.75;98770.78;5069638;28;20084;-69
2023/09/04 06:15:50;;;;;;;0.13;0.13;;;;;;;12.22;80.83;98764.22;5074054;28;20037;-69
2023/09/04 06:18:19;;;;;;;0.20;0.20;;;;;;;12.27;80.41;98777.88;5074145;28;20151;-69
2023/09/04 06:20:46;;;;;;;0.20;0.20;;;;;;;12.30;80.51;98768.69;5071083;28;20112;-69
2023/09/04 06:23:15;;;;;;;0.22;0.22;;;;;;;12.36;80.56;98771.47;5072870;28;20044;-69
2023/09/04 06:25:44;;;;;;;0.13;0.13;;;;;;;12.56;80.17;98777.22;5069985;28;20111;-69
2023/09/04 06:28:12;;;;;;;0.15;0.15;;;;;;;12.53;80.15;98776.75;5072049;28;20040;-70
2023/09/04 06:30:40;;;;;;;0.13;0.13;;;;;;;12.52;80.12;98781.25;5069368;28;20057;-69
2023/09/04 06:33:07;;;;;;;0.22;0.22;;;;;;;12.54;80.00;98776.56;5068452;28;20044;-69
2023/09/04 06:35:35;;;;;;;0.22;0.22;;;;;;;12.60;80.56;98781.19;5073812;28;20036;-69
2023/09/04 06:38:03;;;;;;;0.10;0.10;;;;;;;12.65;80.21;98788.72;5071304;28;20406;-69
2023/09/04 06:40:32;;;;;;;0.20;0.20;;;;;;;12.63;80.37;98783.53;5073850;28;20124;-69
2023/09/04 06:43:00;;;;;;;0.13;0.13;;;;;;;12.65;80.54;98786.88;5069974;28;20496;-68
2023/09/04 06:45:27;;;;;;;0.20;0.20;;;;;;;12.72;80.54;98782.47;5066317;28;20040;-69
2023/09/04 06:47:56;;;;;;;0.13;0.13;;;;;;;12.75;80.34;98783.94;5068270;28;20044;-68
2023/09/04 06:50:23;;;;;;;0.13;0.13;;;;;;;12.81;80.50;98776.03;5070123;28;20128;-69
2023/09/04 06:52:51;;;;;;;0.32;0.32;;;;;;;12.91;80.22;98774.94;5065056;28;20049;-68
2023/09/04 06:55:19;;;;;;;0.20;0.20;;;;;;;12.99;80.16;98782.91;5062562;28;20040;-68
2023/09/04 06:57:48;;;;;;;0.20;0.20;;;;;;;13.12;79.47;98783.13;5065420;28;20039;-68
2023/09/04 07:00:16;;;;;;;0.20;0.20;;;;;;;13.20;79.05;98775.03;5068838;28;20477;-69
2023/09/04 07:02:44;;;;;;;0.10;0.10;;;;;;;13.34;78.93;98778.78;5069923;28;20126;-69
2023/09/04 07:05:11;;;;;;;0.05;0.05;;;;;;;13.44;78.39;98782.03;5068250;28;20478;-69
2023/09/04 07:07:39;;;;;;;0.13;0.13;;;;;;;13.53;78.48;98775.56;5070757;28;20123;-69
2023/09/04 07:10:08;;;;;;;0.08;0.08;;;;;;;13.60;78.09;98781.84;5072666;28;20058;-68
2023/09/04 07:12:36;;;;;;;0.13;0.13;;;;;;;13.64;77.80;98785.00;5069394;28;20464;-69
2023/09/04 07:15:07;;;;;;;0.22;0.22;;;;;;;13.68;78.13;98784.44;5071852;28;20055;-69
2023/09/04 07:17:35;;;;;;;0.20;0.20;;;;;;;13.79;78.43;98791.22;5067587;28;20044;-69
2023/09/04 07:20:04;;;;;;;0.13;0.13;;;;;;;13.83;77.83;98787.94;5070503;28;20083;-69
2023/09/04 07:22:32;;;;;;;0.20;0.20;;;;;;;13.87;78.20;98789.25;5061233;28;20458;-69
2023/09/04 07:25:00;;;;;;;0.28;0.28;;;;;;;13.95;78.18;98780.25;5070901;28;20067;-66
2023/09/04 07:27:27;;;;;;;0.13;0.13;;;;;;;14.03;77.26;98777.47;5074123;28;20124;-70
2023/09/04 07:29:55;;;;;;;0.25;0.25;;;;;;;14.15;77.51;98773.28;5072312;28;20052;-70
2023/09/04 07:32:25;;;;;;;0.22;0.22;;;;;;;14.23;77.16;98766.97;5064304;28;20464;-68
2023/09/04 07:34:55;;;;;;;0.13;0.13;;;;;;;14.34;76.98;98772.69;5072993;28;20063;-67
2023/09/04 07:37:25;;;;;;;0.22;0.22;;;;;;;14.42;75.87;98765.59;5069497;28;20369;-67
2023/09/04 07:39:52;;;;;;;0.10;0.10;;;;;;;14.54;75.32;98770.25;5071304;28;20115;-67
2023/09/04 07:42:20;;;;;;;0.20;0.20;;;;;;;14.68;74.93;98769.38;5070735;28;20126;-67
2023/09/04 07:44:48;;;;;;;0.22;0.22;;;;;;;14.80;74.08;98772.38;5069157;28;20051;-67
2023/09/04 07:47:16;;;;;;;0.13;0.13;;;;;;;14.90;72.83;98772.06;5070628;28;20044;-67
2023/09/04 07:49:45;;;;;;;0.20;0.20;;;;;;;15.01;71.92;98771.53;5066361;28;20084;-67
2023/09/04 07:52:12;;;;;;;0.13;0.13;;;;;;;15.13;71.41;98774.53;5061555;28;20144;-67
2023/09/04 07:54:40;;;;;;;0.20;0.20;;;;;;;15.33;71.54;98783.59;5065787;28;20120;-67
2023/09/04 07:57:08;;;;;;;0.22;0.22;;;;;;;15.49;70.28;98780.59;5068601;28;20048;-67
2023/09/04 07:59:35;;;;;;;0.22;0.22;;;;;;;15.66;70.01;98783.84;5071334;28;20043;-67
2023/09/04 08:02:03;;;;;;;0.30;0.30;;;;;;;15.77;69.46;98786.00;5070157;28;20044;-67
2023/09/04 08:04:31;;;;;;;0.13;0.13;;;;;;;15.91;69.29;98785.00;5068219;28;20128;-68
2023/09/04 08:07:00;;;;;;;0.15;0.15;;;;;;;16.04;68.60;98786.94;5068295;28;20048;-67
2023/09/04 08:09:28;;;;;;;0.13;0.13;;;;;;;16.16;68.15;98790.75;5064477;28;20072;-67
2023/09/04 08:11:55;;;;;;;0.10;0.10;;;;;;;16.29;68.74;98784.59;5068570;28;20048;-68
2023/09/04 08:14:23;;;;;;;0.32;0.32;;;;;;;16.35;67.64;98786.47;5071000;28;20471;-68
2023/09/04 08:16:53;;;;;;;0.10;0.10;;;;;;;16.47;67.15;98782.97;5067064;28;20123;-68
2023/09/04 08:19:21;;;;;;;0.30;0.30;;;;;;;16.60;67.08;98775.97;5062590;28;20052;-68
2023/09/04 08:21:49;;;;;;;0.22;0.22;;;;;;;16.68;66.08;98770.41;5068622;28;20037;-68
2023/09/04 08:24:18;;;;;;;0.10;0.10;;;;;;;16.75;65.99;98780.16;5059716;28;20048;-68
2023/09/04 08:26:46;;;;;;;0.10;0.10;;;;;;;16.86;65.94;98771.47;5058476;28;20041;-68
2023/09/04 08:29:13;;;;;;;0.10;0.10;;;;;;;16.98;65.39;98774.41;5059560;28;20047;-67
2023/09/04 08:31:41;;;;;;;0.30;0.30;;;;;;;17.02;64.94;98775.66;5065086;28;20218;-67
2023/09/04 08:34:09;;;;;;;0.22;0.22;;;;;;;17.08;65.16;98771.28;5068059;28;20091;-67
2023/09/04 08:36:36;;;;;;;0.15;0.15;;;;;;;17.17;64.55;98768.16;5072508;28;20036;-67
2023/09/04 08:39:04;;;;;;;0.30;0.30;;;;;;;17.20;63.55;98758.84;5067218;28;20044;-67
2023/09/04 08:41:35;;;;;;;0.10;0.10;;;;;;;17.24;62.44;98760.91;5071368;28;20399;-67
2023/09/04 08:44:04;;;;;;;0.20;0.20;;;;;;;17.31;62.10;98752.81;5059285;28;20083;-67
2023/09/04 08:46:32;;;;;;;0.03;0.03;;;;;;;17.35;60.84;98748.63;5068242;28;20041;-67
2023/09/04 08:49:02;;;;;;;0.22;0.22;;;;;;;17.43;61.07;98743.03;5068929;28;20126;-67
2023/09/04 08:51:31;;;;;;;0.13;0.13;;;;;;;17.51;61.63;98750.91;5069018;28;20070;-67
2023/09/04 08:53:59;;;;;;;0.10;0.10;;;;;;;17.62;61.94;98752.16;5071655;28;20045;-67
2023/09/04 08:56:30;;;;;;;0.22;0.22;;;;;;;17.60;61.08;98748.81;5066538;28;20094;-68
2023/09/04 08:58:59;;;;;;;0.20;0.20;;;;;;;17.64;61.34;98754.66;5071641;28;20048;-67
2023/09/04 09:01:30;;;;;;;0.22;0.22;;;;;;;17.72;60.51;98749.88;5069447;28;20133;-67
2023/09/04 09:03:58;;;;;;;0.10;0.10;;;;;;;17.68;60.44;98756.72;5071209;28;20032;-67
2023/09/04 09:06:26;;;;;;;0.15;0.15;;;;;;;17.85;60.54;98747.13;5068313;28;20166;-67
2023/09/04 09:08:54;;;;;;;0.10;0.10;;;;;;;17.98;60.65;98755.19;5070790;28;20571;-67
2023/09/04 09:11:23;;;;;;;0.13;0.13;;;;;;;18.12;60.59;98749.72;5068668;28;20045;-67
2023/09/04 09:13:50;;;;;;;0.10;0.10;;;;;;;18.28;60.79;98749.22;5069904;28;20052;-67
2023/09/04 09:16:20;;;;;;;0.13;0.13;;;;;;;18.30;59.55;98745.28;5069280;28;20158;-67
2023/09/04 09:18:49;;;;;;;0.22;0.22;;;;;;;18.33;59.82;98752.13;5067578;28;20036;-67
2023/09/04 09:21:24;;;;;;;0.13;0.13;;;;;;;18.34;59.56;98749.22;5067165;28;20054;-67
2023/09/04 09:24:10;;;;;;;0.20;0.20;;;;;;;18.52;59.69;98748.47;5069900;28;20048;-68
2023/09/04 09:26:39;;;;;;;0.13;0.13;;;;;;;18.64;58.92;98745.94;5067696;28;20503;-67
2023/09/04 09:29:08;;;;;;;0.13;0.13;;;;;;;18.64;59.18;98754.91;5069370;28;20044;-67
2023/09/04 09:31:38;;;;;;;0.03;0.03;;;;;;;18.75;59.31;98747.13;5066804;28;20033;-67
2023/09/04 09:34:06;;;;;;;0.03;0.03;;;;;;;18.69;59.25;98738.81;5067185;28;20044;-67
2023/09/04 09:36:34;;;;;;;0.13;0.13;;;;;;;18.81;59.03;98733.56;5071357;28;20326;-70
2023/09/04 09:39:04;;;;;;;0.10;0.10;;;;;;;18.93;60.01;98736.38;5066665;28;20059;-67
2023/09/04 09:41:32;;;;;;;0.13;0.13;;;;;;;19.03;58.39;98734.00;5069873;28;20048;-67
2023/09/04 09:44:01;;;;;;;0.10;0.10;;;;;;;18.94;58.12;98730.75;5066531;28;20032;-68
2023/09/04 09:46:29;;;;;;;0.03;0.03;;;;;;;19.13;59.06;98731.63;5069308;28;20128;-70
2023/09/04 09:48:59;;;;;;;0.13;0.13;;;;;;;19.36;59.15;98728.31;5065649;28;20032;-68
2023/09/04 09:51:28;;;;;;;0.13;0.13;;;;;;;19.54;59.08;98724.81;5067550;28;20075;-68
2023/09/04 09:53:57;;;;;;;0.20;0.20;;;;;;;19.73;58.50;98721.91;5057532;28;20040;-67
2023/09/04 09:56:25;;;;;;;0.13;0.13;;;;;;;19.88;56.11;98713.41;5066113;28;20075;-68
2023/09/04 09:58:52;;;;;;;0.15;0.15;;;;;;;19.93;55.61;98710.84;5069637;28;20045;-67
2023/09/04 10:01:20;;;;;;;0.10;0.10;;;;;;;20.08;54.84;98707.72;5061713;28;20052;-68
2023/09/04 10:03:48;;;;;;;0.03;0.03;;;;;;;20.16;54.79;98713.66;5070555;28;20040;-68
2023/09/04 10:06:23;;;;;;;0.00;0.00;;;;;;;20.18;54.01;98708.03;5063030;28;20662;-68
2023/09/04 10:08:52;;;;;;;0.03;0.03;;;;;;;20.24;53.55;98700.88;5065178;28;20094;-68
2023/09/04 10:11:20;;;;;;;0.03;0.03;;;;;;;20.46;53.79;98694.72;5067876;28;20072;-67
2023/09/04 10:13:54;;;;;;;0.10;0.10;;;;;;;20.56;52.29;98696.06;5068294;28;20446;-68
2023/09/04 10:16:29;;;;;;;0.10;0.10;;;;;;;20.39;52.24;98691.28;5067938;28;20128;-68
2023/09/04 10:18:59;;;;;;;0.00;0.00;;;;;;;20.52;51.79;98695.69;5067542;28;20041;-68
2023/09/04 10:21:35;;;;;;;0.03;0.03;;;;;;;20.65;51.78;98691.97;5064250;28;20044;-68
2023/09/04 10:24:03;;;;;;;0.13;0.13;;;;;;;20.94;49.52;98684.81;5070916;28;20127;-67
2023/09/04 10:26:36;;;;;;;0.03;0.03;;;;;;;21.05;50.00;98679.41;5066791;28;20041;-68
2023/09/04 10:29:07;;;;;;;0.10;0.10;;;;;;;21.70;47.97;98675.72;5061282;28;20124;-67
2023/09/04 10:31:35;;;;;;;0.20;0.20;;;;;;;21.93;47.74;98673.75;5061677;28;20404;-67
2023/09/04 10:34:03;;;;;;;0.03;0.03;;;;;;;22.00;47.68;98679.09;5063318;28;20044;-69
2023/09/04 10:36:32;;;;;;;0.13;0.13;;;;;;;22.00;47.40;98676.41;5063185;28;20121;-67
2023/09/04 10:39:01;;;;;;;0.17;0.17;;;;;;;22.07;48.20;98681.69;5064892;28;20044;-67
2023/09/04 10:41:30;;;;;;;0.10;0.10;;;;;;;22.24;47.16;98664.34;5069923;28;20119;-67
2023/09/04 10:43:58;;;;;;;0.03;0.03;;;;;;;22.69;46.75;98664.34;5057870;28;20519;-67
2023/09/04 10:46:26;;;;;;;0.10;0.10;;;;;;;22.92;44.59;98668.03;5067989;28;20044;-67
2023/09/04 10:48:54;;;;;;;0.10;0.10;;;;;;;22.81;44.68;98658.84;5064561;28;20037;-68
2023/09/04 10:51:34;;;;;;;0.03;0.03;;;;;;;22.72;45.22;98659.47;5058090;28;20514;-67
2023/09/04 10:54:03;;;;;;;0.03;0.03;;;;;;;23.01;46.10;98661.09;5068141;28;20072;-67
2023/09/04 10:56:53;;;;;;;0.00;0.00;;;;;;;22.60;45.17;98654.09;5072487;28;20148;-67
2023/09/04 10:59:20;;;;;;;0.03;0.03;;;;;;;22.66;45.63;98656.66;5069123;28;20056;-67
2023/09/04 11:01:48;;;;;;;0.03;0.03;;;;;;;22.88;45.70;98656.78;5061665;28;20046;-67
2023/09/04 11:04:27;;;;;;;0.10;0.10;;;;;;;23.11;45.32;98663.97;5072930;28;20511;-67
2023/09/04 11:07:27;;;;;;;0.10;0.10;;;;;;;23.58;43.92;98663.56;5062291;28;20120;-67
2023/09/04 11:10:02;;;;;;;0.03;0.03;;;;;;;23.86;42.89;98668.88;5072706;28;20048;-67
2023/09/04 11:12:32;;;;;;;0.10;0.10;;;;;;;23.94;42.98;98659.41;5066331;28;20051;-69
2023/09/04 11:15:00;;;;;;;0.00;0.00;;;;;;;23.88;43.03;98661.22;5071648;28;20040;-67
2023/09/04 11:17:28;;;;;;;0.10;0.10;;;;;;;23.51;43.48;98661.03;5058583;28;20558;-68
2023/09/04 11:19:56;;;;;;;0.05;0.05;;;;;;;23.74;43.86;98657.25;5063866;28;20130;-70
2023/09/04 11:22:25;;;;;;;0.10;0.10;;;;;;;24.06;42.03;98655.47;5071790;28;20048;-68
2023/09/04 11:24:54;;;;;;;0.10;0.10;;;;;;;24.31;42.17;98643.19;5071282;28;20063;-67
2023/09/04 11:27:23;;;;;;;0.03;0.03;;;;;;;24.58;41.48;98644.03;5069022;28;20040;-67
2023/09/04 11:29:51;;;;;;;0.00;0.00;;;;;;;24.83;41.35;98649.69;5073588;28;20412;-67
2023/09/04 11:32:19;;;;;;;0.10;0.10;;;;;;;24.99;40.55;98645.22;5065771;28;20388;-68
2023/09/04 11:34:49;;;;;;;0.30;0.30;;;;;;;24.59;41.36;98636.66;5072507;28;20045;-68
2023/09/04 11:37:17;;;;;;;0.00;0.00;;;;;;;24.99;40.37;98637.03;5071061;28;20551;-67
2023/09/04 11:39:53;;;;;;;0.10;0.10;;;;;;;24.91;40.72;98642.13;5072267;28;20033;-69
2023/09/04 11:42:28;;;;;;;0.13;0.13;;;;;;;24.88;40.88;98630.63;5063803;28;20033;-68